createdAt,value
2023-10-08T00:01:24.731Z,145058.22
2023-10-08T00:03:52.703Z,144969.72
2023-10-08T00:06:21.771Z,145065.50
2023-10-08T00:08:49.909Z,144961.22
2023-10-08T00:11:17.736Z,145030.34
2023-10-08T00:13:45.455Z,145057.03
2023-10-08T00:16:17.813Z,145064.28
2023-10-08T00:18:52.874Z,145050.94
2023-10-08T00:21:28.842Z,145041.22
2023-10-08T00:23:59.432Z,144945.44
2023-10-08T00:26:30.278Z,145026.69
2023-10-08T00:29:17.001Z,145019.44
2023-10-08T00:31:46.497Z,145021.84
2023-10-08T00:34:15.033Z,145010.94
2023-10-08T00:36:43.458Z,145000.00
2023-10-08T00:39:15.143Z,144998.81
2023-10-08T00:41:44.211Z,144903.00
2023-10-08T00:44:19.429Z,144979.41
2023-10-08T00:46:49.290Z,144966.06
2023-10-08T00:49:37.423Z,144946.69
2023-10-08T00:52:25.598Z,144915.16
2023-10-08T00:55:05.644Z,144853.31
2023-10-08T00:57:37.153Z,144812.09
2023-10-08T01:00:07.673Z,144896.97
2023-10-08T01:02:47.317Z,144886.03
2023-10-08T01:05:19.152Z,144881.19
2023-10-08T01:07:49.701Z,144856.97
2023-10-08T01:10:21.058Z,144863.00
2023-10-08T01:13:06.489Z,144785.44
2023-10-08T01:15:37.038Z,144781.78
2023-10-08T01:18:15.804Z,144881.19
2023-10-08T01:20:46.356Z,144767.25
2023-10-08T01:23:23.562Z,144849.66
2023-10-08T01:25:58.684Z,144835.13
2023-10-08T01:28:30.258Z,144823.00
2023-10-08T01:31:01.458Z,144818.16
2023-10-08T01:33:32.305Z,144757.56
2023-10-08T01:36:05.125Z,144755.13
2023-10-08T01:38:35.934Z,144832.69
2023-10-08T01:41:11.211Z,144841.19
2023-10-08T01:43:39.866Z,144818.16
2023-10-08T01:46:12.464Z,144906.66
2023-10-08T01:48:40.493Z,144924.84
2023-10-08T01:51:12.392Z,144886.03
2023-10-08T01:53:39.886Z,144886.03
2023-10-08T01:56:07.301Z,144875.16
2023-10-08T01:58:37.080Z,144852.13
2023-10-08T02:01:06.532Z,144842.41
2023-10-08T02:03:34.965Z,144841.19
2023-10-08T02:06:06.952Z,144827.84
2023-10-08T02:08:34.060Z,144784.25
2023-10-08T02:11:03.506Z,144787.88
2023-10-08T02:13:31.567Z,144704.25
2023-10-08T02:15:59.190Z,144846.03
2023-10-08T02:18:26.860Z,144873.94
2023-10-08T02:20:54.255Z,144916.34
2023-10-08T02:23:21.610Z,144951.53
2023-10-08T02:25:49.172Z,144951.53
2023-10-08T02:28:16.985Z,144961.22
2023-10-08T02:30:44.593Z,144970.91
2023-10-08T02:33:18.513Z,144962.44
2023-10-08T02:35:47.404Z,144970.91
2023-10-08T02:38:19.230Z,144963.63
2023-10-08T02:40:48.595Z,144933.34
2023-10-08T02:43:17.443Z,144920.00
2023-10-08T02:45:56.704Z,144895.72
2023-10-08T02:48:24.381Z,144933.34
2023-10-08T02:50:54.356Z,144892.13
2023-10-08T02:53:26.829Z,144901.81
2023-10-08T02:55:54.793Z,144901.81
2023-10-08T02:58:22.027Z,144903.00
2023-10-08T03:00:50.210Z,144905.41
2023-10-08T03:03:20.503Z,144910.31
2023-10-08T03:05:53.323Z,144895.72
2023-10-08T03:08:24.752Z,144905.41
2023-10-08T03:10:56.576Z,144907.88
2023-10-08T03:13:24.701Z,144907.88
2023-10-08T03:16:04.035Z,144929.69
2023-10-08T03:18:38.226Z,144929.69
2023-10-08T03:21:22.558Z,144856.97
2023-10-08T03:23:52.809Z,144733.34
2023-10-08T03:26:32.581Z,144852.13
2023-10-08T03:29:06.562Z,144852.13
2023-10-08T03:31:59.771Z,144848.47
2023-10-08T03:34:35.107Z,144839.97
2023-10-08T03:37:08.469Z,144808.47
2023-10-08T03:39:54.154Z,144818.16
2023-10-08T03:42:25.129Z,144813.31
2023-10-08T03:44:53.655Z,144803.63
2023-10-08T03:47:23.550Z,144792.72
2023-10-08T03:49:51.717Z,144837.56
2023-10-08T03:52:30.955Z,144864.22
2023-10-08T03:55:17.407Z,144881.19
2023-10-08T03:57:45.347Z,144853.31
2023-10-08T04:00:19.892Z,144820.59
2023-10-08T04:03:08.930Z,144825.44
2023-10-08T04:06:03.942Z,144844.81
2023-10-08T04:08:59.371Z,144836.34
2023-10-08T04:11:36.665Z,144809.66
2023-10-08T04:14:04.304Z,144784.25
2023-10-08T04:16:37.817Z,144767.25
2023-10-08T04:19:05.548Z,144736.97
2023-10-08T04:21:34.893Z,144752.72
2023-10-08T04:24:04.883Z,144736.97
2023-10-08T04:26:32.772Z,144723.63
2023-10-08T04:29:07.549Z,144711.53
2023-10-08T04:31:38.516Z,144697.00
2023-10-08T04:34:23.095Z,144695.75
2023-10-08T04:36:56.198Z,144699.41
2023-10-08T04:39:27.286Z,144689.72
2023-10-08T04:41:55.190Z,144687.28
2023-10-08T04:46:53.645Z,144672.75
2023-10-08T04:49:30.060Z,144695.75
2023-10-08T04:51:59.771Z,144699.41
2023-10-08T04:54:31.243Z,144694.56
2023-10-08T04:57:03.758Z,144671.56
2023-10-08T04:59:35.012Z,144730.91
2023-10-08T05:02:22.537Z,144730.91
2023-10-08T05:05:10.351Z,144718.78
2023-10-08T05:07:46.652Z,144705.44
2023-10-08T05:10:38.453Z,144726.06
2023-10-08T05:13:05.503Z,144756.38
2023-10-08T05:15:43.280Z,144689.72
2023-10-08T05:18:30.958Z,144744.25
2023-10-08T05:21:03.270Z,144781.78
2023-10-08T05:23:30.827Z,144789.09
2023-10-08T05:26:08.005Z,144792.72
2023-10-08T05:28:47.512Z,144775.75
2023-10-08T05:31:15.942Z,144716.38
2023-10-08T05:34:02.502Z,144746.69
2023-10-08T05:36:36.820Z,144745.44
2023-10-08T05:39:26.650Z,144745.44
2023-10-08T05:42:06.207Z,144730.91
2023-10-08T05:44:46.943Z,144755.13
2023-10-08T05:47:40.315Z,144715.19
2023-10-08T05:50:16.794Z,144772.09
2023-10-08T05:53:00.235Z,144772.09
2023-10-08T05:55:34.828Z,144743.03
2023-10-08T05:58:35.887Z,144791.47
2023-10-08T06:01:08.840Z,144793.94
2023-10-08T06:04:05.517Z,144770.91
2023-10-08T06:06:38.661Z,144797.56
2023-10-08T06:09:21.875Z,144749.09
2023-10-08T06:12:10.887Z,144707.91
2023-10-08T06:14:56.882Z,144816.97
2023-10-08T06:17:58.748Z,144818.16
2023-10-08T06:20:28.005Z,144812.09
2023-10-08T06:23:02.062Z,144791.47
2023-10-08T06:25:29.204Z,144793.94
2023-10-08T06:27:56.793Z,144798.78
2023-10-08T06:30:29.931Z,144808.47
2023-10-08T06:32:57.732Z,144806.06
2023-10-08T06:35:28.058Z,144818.16
2023-10-08T06:38:00.847Z,144827.84
2023-10-08T06:40:40.104Z,144713.94
2023-10-08T06:43:18.104Z,144799.97
2023-10-08T06:45:48.336Z,144809.66
2023-10-08T06:48:21.782Z,144819.41
2023-10-08T06:50:50.302Z,144734.56
2023-10-08T06:53:22.925Z,144895.72
2023-10-08T06:55:58.007Z,144890.88
2023-10-08T06:58:25.648Z,144966.06
2023-10-08T07:00:56.135Z,144996.34
2023-10-08T07:03:23.566Z,145019.44
2023-10-08T07:05:58.860Z,145048.53
2023-10-08T07:08:28.019Z,145065.50
2023-10-08T07:10:57.562Z,144973.31
2023-10-08T07:13:25.557Z,145135.84
2023-10-08T07:15:53.442Z,145122.50
2023-10-08T07:18:26.182Z,145121.31
2023-10-08T07:20:55.135Z,145149.19
2023-10-08T07:23:26.297Z,145160.09
2023-10-08T07:25:58.342Z,145172.25
2023-10-08T07:28:26.740Z,145194.09
2023-10-08T07:30:54.081Z,145202.59
2023-10-08T07:33:21.288Z,145228.06
2023-10-08T07:36:12.979Z,145121.31
2023-10-08T07:38:43.264Z,145226.84
2023-10-08T07:41:15.591Z,145172.25
2023-10-08T07:43:47.554Z,145215.94
2023-10-08T07:46:16.402Z,145237.81
2023-10-08T07:48:43.957Z,145257.25
2023-10-08T07:51:11.085Z,145274.25
2023-10-08T07:53:43.021Z,145281.50
2023-10-08T07:56:12.102Z,145253.59
2023-10-08T07:58:39.289Z,145293.66
2023-10-08T08:01:10.633Z,145194.09
2023-10-08T08:03:38.080Z,145343.44
2023-10-08T08:06:09.131Z,145408.97
2023-10-08T08:08:38.147Z,145391.97
2023-10-08T08:11:12.779Z,145412.63
2023-10-08T08:13:44.084Z,145395.63
2023-10-08T08:16:22.081Z,145310.66
2023-10-08T08:18:53.045Z,145357.97
2023-10-08T08:21:20.855Z,145337.31
2023-10-08T08:23:49.285Z,145269.34
2023-10-08T08:26:30.512Z,145398.06
2023-10-08T08:29:00.936Z,145325.22
2023-10-08T08:31:32.432Z,145438.13
2023-10-08T08:34:18.800Z,145434.47
2023-10-08T08:36:49.845Z,145451.44
2023-10-08T08:39:37.596Z,145432.03
2023-10-08T08:42:08.085Z,145494.00
2023-10-08T08:44:47.233Z,145511.00
2023-10-08T08:47:18.788Z,145432.03
2023-10-08T08:49:47.558Z,145577.78
2023-10-08T08:52:15.374Z,145525.56
2023-10-08T08:54:45.670Z,145526.78
2023-10-08T08:57:15.908Z,145660.38
2023-10-08T08:59:54.325Z,145740.66
2023-10-08T09:02:21.842Z,145772.25
2023-10-08T09:04:50.448Z,145745.50
2023-10-08T09:07:22.638Z,145672.56
2023-10-08T09:09:50.834Z,145639.75
2023-10-08T09:12:18.743Z,145662.84
2023-10-08T09:14:47.386Z,145649.47
2023-10-08T09:17:18.029Z,145611.81
2023-10-08T09:19:46.641Z,145638.56
2023-10-08T09:22:16.141Z,145587.50
2023-10-08T09:24:43.825Z,145644.63
2023-10-08T09:27:19.608Z,145534.06
2023-10-08T09:29:47.390Z,145620.31
2023-10-08T09:32:15.097Z,145616.69
2023-10-08T09:34:44.170Z,145464.81
2023-10-08T09:37:12.883Z,145565.66
2023-10-08T09:39:42.307Z,145549.84
2023-10-08T09:42:12.821Z,145577.78
2023-10-08T09:44:40.826Z,145582.63
2023-10-08T09:47:11.452Z,145597.19
2023-10-08T09:50:08.553Z,145677.41
2023-10-08T09:52:45.960Z,145706.59
2023-10-08T09:55:13.313Z,145684.72
2023-10-08T09:57:42.482Z,145621.53
2023-10-08T10:00:19.637Z,145527.97
2023-10-08T10:02:47.753Z,145551.06
2023-10-08T10:05:25.266Z,145545.00
2023-10-08T10:07:56.407Z,145570.50
2023-10-08T10:10:35.648Z,145593.59
2023-10-08T10:13:10.094Z,145636.09
2023-10-08T10:15:39.134Z,145626.38
2023-10-08T10:18:14.952Z,145678.59
2023-10-08T10:20:55.149Z,145709.06
2023-10-08T10:23:40.982Z,145703.00
2023-10-08T10:26:27.490Z,145715.13
2023-10-08T10:29:15.988Z,145689.56
2023-10-08T10:31:54.043Z,145679.84
2023-10-08T10:34:25.001Z,145687.13
2023-10-08T10:36:57.417Z,145679.84
2023-10-08T10:39:33.901Z,145712.72
2023-10-08T10:42:03.627Z,145733.34
2023-10-08T10:44:32.101Z,145733.34
2023-10-08T10:47:20.671Z,145761.28
2023-10-08T10:50:15.804Z,145773.47
2023-10-08T10:52:52.879Z,145852.47
2023-10-08T10:55:32.413Z,145868.28
2023-10-08T10:58:12.324Z,145903.56
2023-10-08T11:00:43.684Z,145947.31
2023-10-08T11:03:17.307Z,145976.53
2023-10-08T11:05:52.481Z,145953.44
2023-10-08T11:08:20.779Z,145995.97
2023-10-08T11:10:51.700Z,146098.19
2023-10-08T11:13:20.752Z,146027.59
2023-10-08T11:15:53.044Z,146051.91
2023-10-08T11:18:22.917Z,145991.13
2023-10-08T11:21:03.963Z,146089.66
2023-10-08T11:23:42.590Z,146122.56
2023-10-08T11:26:09.937Z,146073.81
2023-10-08T11:28:44.268Z,146045.84
2023-10-08T11:31:12.525Z,146011.78
2023-10-08T11:33:49.487Z,145991.13
2023-10-08T11:36:21.571Z,145977.72
2023-10-08T11:38:49.052Z,145975.28
2023-10-08T11:41:23.955Z,145993.53
2023-10-08T11:43:57.793Z,146015.41
2023-10-08T11:46:27.074Z,146036.13
2023-10-08T11:48:58.917Z,146053.13
2023-10-08T11:51:28.429Z,146073.81
2023-10-08T11:53:57.508Z,146027.59
2023-10-08T11:56:25.399Z,146047.06
2023-10-08T11:58:53.473Z,146010.56
2023-10-08T12:01:21.450Z,145981.38
2023-10-08T12:03:51.068Z,145935.19
2023-10-08T12:06:22.152Z,145862.22
2023-10-08T12:08:54.552Z,145964.34
2023-10-08T12:11:24.091Z,146026.41
2023-10-08T12:13:51.122Z,146055.56
2023-10-08T12:16:24.436Z,146095.78
2023-10-08T12:18:55.037Z,146105.50
2023-10-08T12:21:22.831Z,146105.50
2023-10-08T12:23:52.413Z,146005.69
2023-10-08T12:26:20.229Z,146090.91
2023-10-08T12:28:49.613Z,146037.31
2023-10-08T12:31:18.061Z,146087.25
2023-10-08T12:33:45.328Z,146094.53
2023-10-08T12:36:13.038Z,146049.50
2023-10-08T12:38:44.608Z,146115.22
2023-10-08T12:41:15.477Z,146120.09
2023-10-08T12:43:46.664Z,146171.19
2023-10-08T12:46:19.551Z,146183.38
2023-10-08T12:48:49.510Z,146120.09
2023-10-08T12:51:17.060Z,146133.47
2023-10-08T12:53:51.842Z,146118.88
2023-10-08T12:56:22.882Z,146120.09
2023-10-08T12:58:50.198Z,146110.38
2023-10-08T13:01:21.110Z,146129.81
2023-10-08T13:03:51.117Z,146103.06
2023-10-08T13:06:23.337Z,146110.38
2023-10-08T13:08:53.742Z,146117.69
2023-10-08T13:11:23.462Z,146027.59
2023-10-08T13:13:51.555Z,146168.78
2023-10-08T13:16:24.241Z,146197.97
2023-10-08T13:18:53.132Z,146222.28
2023-10-08T13:21:20.530Z,146261.25
2023-10-08T13:23:47.817Z,146250.34
2023-10-08T13:26:23.711Z,146266.13
2023-10-08T13:28:51.090Z,146251.53
2023-10-08T13:31:20.278Z,146183.38
2023-10-08T13:33:50.122Z,146131.03
2023-10-08T13:36:19.538Z,146034.88
2023-10-08T13:38:47.637Z,146095.78
2023-10-08T13:41:19.185Z,146005.69
2023-10-08T13:43:52.588Z,146038.53
2023-10-08T13:46:23.803Z,146109.16
2023-10-08T13:48:51.162Z,146095.78
2023-10-08T13:51:26.782Z,146100.63
2023-10-08T13:54:00.445Z,146061.63
2023-10-08T13:56:31.060Z,146071.38
2023-10-08T13:59:12.806Z,146075.03
2023-10-08T14:01:44.437Z,146093.31
2023-10-08T14:04:12.488Z,146088.47
2023-10-08T14:06:49.511Z,146032.47
2023-10-08T14:09:22.542Z,146023.94
2023-10-08T14:11:54.128Z,146026.41
2023-10-08T14:14:25.439Z,145991.13
2023-10-08T14:16:54.973Z,145992.31
2023-10-08T14:19:30.019Z,146019.09
2023-10-08T14:22:04.095Z,145985.00
2023-10-08T14:24:36.560Z,145988.66
2023-10-08T14:27:12.989Z,145987.44
2023-10-08T14:29:51.216Z,145997.19
2023-10-08T14:32:18.910Z,145964.34
2023-10-08T14:34:55.195Z,146055.56
2023-10-08T14:37:42.106Z,146042.19
2023-10-08T14:40:28.285Z,146005.69
2023-10-08T14:43:03.516Z,146105.50
2023-10-08T14:45:36.091Z,146112.78
2023-10-08T14:48:03.586Z,146106.72
2023-10-08T14:50:34.121Z,146061.63
2023-10-08T14:53:02.772Z,146044.66
2023-10-08T14:55:31.210Z,146005.69
2023-10-08T14:57:58.516Z,146036.13
2023-10-08T15:00:26.022Z,146056.78
2023-10-08T15:02:56.770Z,146026.41
2023-10-08T15:05:24.337Z,145949.78
2023-10-08T15:07:55.169Z,146026.41
2023-10-08T15:10:24.900Z,146009.34
2023-10-08T15:12:53.377Z,145915.69
2023-10-08T15:15:20.762Z,145966.75
2023-10-08T15:17:50.568Z,145944.91
2023-10-08T15:20:20.908Z,145830.63
2023-10-08T15:22:50.461Z,145896.25
2023-10-08T15:25:19.190Z,145907.19
2023-10-08T15:27:48.631Z,145929.06
2023-10-08T15:30:21.308Z,145908.44
2023-10-08T15:32:50.156Z,145901.09
2023-10-08T15:35:21.233Z,145771.06
2023-10-08T15:37:48.979Z,145859.78
2023-10-08T15:40:20.892Z,145847.59
2023-10-08T15:42:53.276Z,145848.84
2023-10-08T15:45:21.591Z,145830.63
2023-10-08T15:47:53.032Z,145709.06
2023-10-08T15:50:26.590Z,145806.28
2023-10-08T15:52:55.643Z,145789.28
2023-10-08T15:55:24.572Z,145774.66
2023-10-08T15:57:54.938Z,145656.78
2023-10-08T16:00:22.165Z,145735.78
2023-10-08T16:02:49.993Z,145706.59
2023-10-08T16:05:18.085Z,145718.78
2023-10-08T16:07:46.435Z,145704.19
2023-10-08T16:10:13.570Z,145733.34
2023-10-08T16:12:40.918Z,145745.50
2023-10-08T16:15:08.704Z,145716.38
2023-10-08T16:17:39.143Z,145704.19
2023-10-08T16:20:14.532Z,145682.25
2023-10-08T16:22:43.319Z,145704.19
2023-10-08T16:25:15.945Z,145677.41
2023-10-08T16:27:49.015Z,145665.25
2023-10-08T16:30:17.088Z,145655.53
2023-10-08T16:32:44.514Z,145553.50
2023-10-08T16:35:12.731Z,145610.56
2023-10-08T16:37:41.171Z,145577.78
2023-10-08T16:40:09.072Z,145597.19
2023-10-08T16:42:36.339Z,145572.91
2023-10-08T16:45:06.153Z,145537.69
2023-10-08T16:47:33.693Z,145534.06
2023-10-08T16:50:01.435Z,145529.22
2023-10-08T16:52:28.716Z,145453.91
2023-10-08T16:54:55.822Z,145518.25
2023-10-08T16:57:23.800Z,145504.91
2023-10-08T16:59:53.067Z,145486.69
2023-10-08T17:02:20.214Z,145459.97
2023-10-08T17:04:47.332Z,145435.69
2023-10-08T17:07:16.656Z,145428.38
2023-10-08T17:09:43.744Z,145395.63
2023-10-08T17:12:10.981Z,145393.22
2023-10-08T17:14:39.819Z,145373.75
2023-10-08T17:17:06.872Z,145366.50
2023-10-08T17:19:34.240Z,145274.25
2023-10-08T17:22:01.246Z,145207.44
2023-10-08T17:24:29.445Z,145268.16
2023-10-08T17:27:11.756Z,145245.06
2023-10-08T17:29:42.485Z,145237.81
2023-10-08T17:32:09.606Z,145215.94
2023-10-08T17:34:37.284Z,145211.09
2023-10-08T17:37:04.578Z,145191.66
2023-10-08T17:39:31.578Z,145184.41
2023-10-08T17:41:58.733Z,145175.91
2023-10-08T17:44:28.122Z,145169.84
2023-10-08T17:46:55.668Z,145155.25
2023-10-08T17:49:23.035Z,145123.69
2023-10-08T17:51:50.073Z,145128.59
2023-10-08T17:54:17.205Z,145114.00
2023-10-08T17:56:44.358Z,145078.88
2023-10-08T17:59:14.767Z,145099.47
2023-10-08T18:01:43.221Z,145080.06
2023-10-08T18:04:14.631Z,145099.47
2023-10-08T18:06:45.525Z,145081.25
2023-10-08T18:09:14.048Z,145071.56
2023-10-08T18:11:44.895Z,145055.81
2023-10-08T18:14:14.269Z,145019.44
2023-10-08T18:16:42.430Z,144939.38
2023-10-08T18:19:11.881Z,144970.91
2023-10-08T18:21:40.281Z,144920.00
2023-10-08T18:24:09.469Z,144995.16
2023-10-08T18:26:48.857Z,144970.91
2023-10-08T18:29:17.284Z,144903.00
2023-10-08T18:31:45.800Z,144854.50
2023-10-08T18:34:16.756Z,144928.50
2023-10-08T18:36:43.884Z,144905.41
2023-10-08T18:39:17.789Z,144888.47
2023-10-08T18:41:47.380Z,144884.84
2023-10-08T18:44:17.169Z,144804.81
2023-10-08T18:46:48.491Z,144859.34
2023-10-08T18:49:16.547Z,144839.97
2023-10-08T18:51:44.642Z,144798.78
2023-10-08T18:54:13.499Z,144815.75
2023-10-08T18:56:42.607Z,144818.16
2023-10-08T18:59:10.353Z,144795.13
2023-10-08T19:01:39.069Z,144792.72
2023-10-08T19:04:07.644Z,144806.06
2023-10-08T19:06:35.564Z,144797.56
2023-10-08T19:09:04.798Z,144772.09
2023-10-08T19:11:36.296Z,144728.50
2023-10-08T19:14:04.715Z,144667.88
2023-10-08T19:16:32.337Z,144757.56
2023-10-08T19:19:00.083Z,144734.56
2023-10-08T19:21:28.317Z,144709.09
2023-10-08T19:23:56.630Z,144707.91
2023-10-08T19:26:29.775Z,144704.25
2023-10-08T19:28:57.349Z,144682.44
2023-10-08T19:31:25.007Z,144699.41
2023-10-08T19:33:53.512Z,144684.88
2023-10-08T19:36:21.125Z,144641.22
2023-10-08T19:38:50.699Z,144670.34
2023-10-08T19:41:22.285Z,144671.56
2023-10-08T19:43:52.882Z,144648.50
2023-10-08T19:46:24.202Z,144563.69
2023-10-08T19:48:53.011Z,144621.84
2023-10-08T19:51:20.352Z,144624.28
2023-10-08T19:53:52.215Z,144517.69
2023-10-08T19:56:20.479Z,144612.16
2023-10-08T19:58:48.083Z,144614.56
2023-10-08T20:01:17.319Z,144601.28
2023-10-08T20:03:45.482Z,144606.13
2023-10-08T20:06:13.682Z,144624.28
2023-10-08T20:08:40.843Z,144591.53
2023-10-08T20:11:08.494Z,144580.66
2023-10-08T20:13:38.524Z,144578.22
2023-10-08T20:16:06.980Z,144498.31
2023-10-08T20:18:34.635Z,144578.22
2023-10-08T20:21:05.890Z,144561.31
2023-10-08T20:23:36.736Z,144549.19
2023-10-08T20:26:15.794Z,144453.53
2023-10-08T20:28:43.222Z,144534.66
2023-10-08T20:31:15.359Z,144512.84
2023-10-08T20:33:44.761Z,144506.81
2023-10-08T20:36:12.151Z,144488.66
2023-10-08T20:38:40.245Z,144476.53
2023-10-08T20:41:15.523Z,144471.69
2023-10-08T20:43:42.888Z,144464.41
2023-10-08T20:46:16.773Z,144462.00
2023-10-08T20:48:46.187Z,144449.88
2023-10-08T20:51:18.261Z,144442.66
2023-10-08T20:53:46.363Z,144434.16
2023-10-08T20:56:14.183Z,144416.00
2023-10-08T20:58:42.923Z,144403.91
2023-10-08T21:01:11.696Z,144396.66
2023-10-08T21:03:39.168Z,144374.88
2023-10-08T21:06:07.444Z,144385.75
2023-10-08T21:08:34.591Z,144377.25
2023-10-08T21:11:04.249Z,144365.19
2023-10-08T21:13:31.806Z,144350.63
2023-10-08T21:16:02.938Z,144348.25
2023-10-08T21:18:31.927Z,144344.59
2023-10-08T21:21:04.348Z,144337.31
2023-10-08T21:23:31.977Z,144328.88
2023-10-08T21:25:59.012Z,144313.13
2023-10-08T21:28:26.182Z,144310.75
2023-10-08T21:30:53.629Z,144304.66
2023-10-08T21:33:20.928Z,144303.47
2023-10-08T21:35:48.139Z,144299.81
2023-10-08T21:38:15.342Z,144309.50
2023-10-08T21:40:42.518Z,144311.94
2023-10-08T21:43:10.143Z,144304.66
2023-10-08T21:45:38.305Z,144316.78
2023-10-08T21:48:07.100Z,144317.97
2023-10-08T21:50:34.488Z,144336.13
2023-10-08T21:53:02.220Z,144326.44
2023-10-08T21:55:29.252Z,144348.25
2023-10-08T21:57:56.310Z,144326.44
2023-10-08T22:00:25.993Z,144340.97
2023-10-08T22:02:59.475Z,144336.13
2023-10-08T22:05:32.843Z,144348.25
2023-10-08T22:08:04.605Z,144333.72
2023-10-08T22:10:34.515Z,144345.78
2023-10-08T22:13:07.909Z,144377.25
2023-10-08T22:15:46.260Z,144370.03
2023-10-08T22:18:26.105Z,144370.03
2023-10-08T22:20:54.282Z,144379.69
2023-10-08T22:23:22.319Z,144355.47
2023-10-08T22:25:52.403Z,144331.28
2023-10-08T22:28:21.050Z,144328.88
2023-10-08T22:30:55.834Z,144322.81
2023-10-08T22:33:34.862Z,144324.06
2023-10-08T22:36:15.987Z,144311.94
2023-10-08T22:38:43.886Z,144311.94
2023-10-08T22:41:11.351Z,144285.31
2023-10-08T22:43:40.992Z,144293.78
2023-10-08T22:46:12.125Z,144288.94
2023-10-08T22:48:50.881Z,144292.59
2023-10-08T22:51:28.484Z,144311.94
2023-10-08T22:53:57.352Z,144284.13
2023-10-08T22:56:25.469Z,144251.47
2023-10-08T22:58:55.991Z,144255.03
2023-10-08T23:01:25.427Z,144253.84
2023-10-08T23:03:53.682Z,144242.97
2023-10-08T23:06:24.901Z,144131.69
2023-10-08T23:08:54.587Z,144244.19
2023-10-08T23:11:21.793Z,144232.06
2023-10-08T23:13:51.425Z,144226.03
2023-10-08T23:16:22.445Z,144226.03
2023-10-08T23:18:56.135Z,144220.00
2023-10-08T23:21:26.696Z,144213.91
2023-10-08T23:23:54.057Z,144198.22
2023-10-08T23:26:22.621Z,144221.19
2023-10-08T23:28:50.416Z,144164.31
2023-10-08T23:31:18.846Z,144211.53
2023-10-08T23:33:50.083Z,144217.56
2023-10-08T23:36:18.327Z,144216.38
2023-10-08T23:38:54.037Z,144198.22
2023-10-08T23:41:32.816Z,144112.34
2023-10-08T23:44:03.929Z,144126.84
2023-10-08T23:46:32.178Z,144224.84
2023-10-08T23:49:06.354Z,144223.59
2023-10-08T23:51:42.474Z,144212.72
2023-10-08T23:54:26.835Z,144211.53
2023-10-08T23:57:01.248Z,144210.28
2023-10-08T23:59:42.632Z,144203.06
